sensor_id;sensor_type;location;lat;lon;timestamp;temperature;humidity
69715;HTU21D;56981;53.532;49.398;2022-07-10T00:00:38;21.67;76.50
69715;HTU21D;56981;53.532;49.398;2022-07-10T00:03:04;21.67;77.04
69715;HTU21D;56981;53.532;49.398;2022-07-10T00:05:30;21.59;77.36
69715;HTU21D;56981;53.532;49.398;2022-07-10T00:07:56;21.44;77.21
69715;HTU21D;56981;53.532;49.398;2022-07-10T00:10:22;21.34;77.33
69715;HTU21D;56981;53.532;49.398;2022-07-10T00:12:50;21.23;77.15
69715;HTU21D;56981;53.532;49.398;2022-07-10T00:15:16;21.23;77.15
69715;HTU21D;56981;53.532;49.398;2022-07-10T00:17:43;21.23;77.70
69715;HTU21D;56981;53.532;49.398;2022-07-10T00:20:09;21.25;77.94
69715;HTU21D;56981;53.532;49.398;2022-07-10T00:22:36;21.36;79.05
69715;HTU21D;56981;53.532;49.398;2022-07-10T00:25:02;21.42;77.11
69715;HTU21D;56981;53.532;49.398;2022-07-10T00:27:28;21.45;77.62
69715;HTU21D;56981;53.532;49.398;2022-07-10T00:29:54;21.52;76.53
69715;HTU21D;56981;53.532;49.398;2022-07-10T00:32:20;21.63;75.76
69715;HTU21D;56981;53.532;49.398;2022-07-10T00:34:46;21.70;75.01
69715;HTU21D;56981;53.532;49.398;2022-07-10T00:37:11;21.65;76.73
69715;HTU21D;56981;53.532;49.398;2022-07-10T00:39:37;21.63;75.74
69715;HTU21D;56981;53.532;49.398;2022-07-10T00:42:07;21.59;76.57
69715;HTU21D;56981;53.532;49.398;2022-07-10T00:44:33;21.58;76.02
69715;HTU21D;56981;53.532;49.398;2022-07-10T00:46:59;21.62;76.30
69715;HTU21D;56981;53.532;49.398;2022-07-10T00:49:25;21.51;77.30
69715;HTU21D;56981;53.532;49.398;2022-07-10T00:51:51;21.52;76.89
69715;HTU21D;56981;53.532;49.398;2022-07-10T00:54:17;21.54;76.52
69715;HTU21D;56981;53.532;49.398;2022-07-10T00:56:43;21.63;77.20
69715;HTU21D;56981;53.532;49.398;2022-07-10T00:59:09;21.74;78.08
69715;HTU21D;56981;53.532;49.398;2022-07-10T01:01:35;21.81;77.85
69715;HTU21D;56981;53.532;49.398;2022-07-10T01:04:01;21.81;76.42
69715;HTU21D;56981;53.532;49.398;2022-07-10T01:06:27;21.80;76.83
69715;HTU21D;56981;53.532;49.398;2022-07-10T01:08:53;21.82;76.91
69715;HTU21D;56981;53.532;49.398;2022-07-10T01:11:19;21.89;77.05
69715;HTU21D;56981;53.532;49.398;2022-07-10T01:13:45;21.87;75.56
69715;HTU21D;56981;53.532;49.398;2022-07-10T01:16:11;21.85;76.44
69715;HTU21D;56981;53.532;49.398;2022-07-10T01:18:37;21.93;76.34
69715;HTU21D;56981;53.532;49.398;2022-07-10T01:21:03;21.99;77.29
69715;HTU21D;56981;53.532;49.398;2022-07-10T01:23:29;21.98;77.05
69715;HTU21D;56981;53.532;49.398;2022-07-10T01:25:55;22.02;73.96
69715;HTU21D;56981;53.532;49.398;2022-07-10T01:28:21;22.18;73.92
69715;HTU21D;56981;53.532;49.398;2022-07-10T01:30:48;22.25;73.19
69715;HTU21D;56981;53.532;49.398;2022-07-10T01:33:14;22.28;72.79
69715;HTU21D;56981;53.532;49.398;2022-07-10T01:35:40;22.34;72.37
69715;HTU21D;56981;53.532;49.398;2022-07-10T01:38:06;22.43;73.63
69715;HTU21D;56981;53.532;49.398;2022-07-10T01:40:32;22.56;71.96
69715;HTU21D;56981;53.532;49.398;2022-07-10T01:42:58;22.64;72.37
69715;HTU21D;56981;53.532;49.398;2022-07-10T01:45:24;22.71;71.47
69715;HTU21D;56981;53.532;49.398;2022-07-10T01:47:50;22.80;71.57
69715;HTU21D;56981;53.532;49.398;2022-07-10T01:50:16;22.79;72.38
69715;HTU21D;56981;53.532;49.398;2022-07-10T01:52:42;22.85;71.69
69715;HTU21D;56981;53.532;49.398;2022-07-10T01:55:08;22.95;71.07
69715;HTU21D;56981;53.532;49.398;2022-07-10T01:57:34;23.09;70.71
69715;HTU21D;56981;53.532;49.398;2022-07-10T02:00:00;23.18;70.16
69715;HTU21D;56981;53.532;49.398;2022-07-10T02:02:26;23.25;70.33
69715;HTU21D;56981;53.532;49.398;2022-07-10T02:04:52;23.34;71.45
69715;HTU21D;56981;53.532;49.398;2022-07-10T02:07:18;23.40;69.50
69715;HTU21D;56981;53.532;49.398;2022-07-10T02:09:44;23.32;71.84
69715;HTU21D;56981;53.532;49.398;2022-07-10T02:12:11;23.35;71.47
69715;HTU21D;56981;53.532;49.398;2022-07-10T02:14:37;23.42;71.87
69715;HTU21D;56981;53.532;49.398;2022-07-10T02:17:04;23.40;71.60
69715;HTU21D;56981;53.532;49.398;2022-07-10T02:19:30;23.23;71.50
69715;HTU21D;56981;53.532;49.398;2022-07-10T02:21:55;23.18;72.49
69715;HTU21D;56981;53.532;49.398;2022-07-10T02:24:22;23.15;71.83
69715;HTU21D;56981;53.532;49.398;2022-07-10T02:26:48;23.05;72.48
69715;HTU21D;56981;53.532;49.398;2022-07-10T02:29:14;23.06;73.09
69715;HTU21D;56981;53.532;49.398;2022-07-10T02:31:40;22.97;73.64
69715;HTU21D;56981;53.532;49.398;2022-07-10T02:34:06;22.97;74.64
69715;HTU21D;56981;53.532;49.398;2022-07-10T02:36:32;22.93;74.96
69715;HTU21D;56981;53.532;49.398;2022-07-10T02:38:58;22.88;76.04
69715;HTU21D;56981;53.532;49.398;2022-07-10T02:41:24;22.87;75.55
69715;HTU21D;56981;53.532;49.398;2022-07-10T02:43:50;22.95;74.61
69715;HTU21D;56981;53.532;49.398;2022-07-10T02:46:16;22.99;74.35
69715;HTU21D;56981;53.532;49.398;2022-07-10T02:48:42;22.99;73.70
69715;HTU21D;56981;53.532;49.398;2022-07-10T02:51:08;23.02;73.80
69715;HTU21D;56981;53.532;49.398;2022-07-10T02:53:34;23.14;72.92
69715;HTU21D;56981;53.532;49.398;2022-07-10T02:56:00;23.20;72.31
69715;HTU21D;56981;53.532;49.398;2022-07-10T02:58:26;24.06;69.87
69715;HTU21D;56981;53.532;49.398;2022-07-10T03:00:52;25.67;64.80
69715;HTU21D;56981;53.532;49.398;2022-07-10T03:03:18;26.60;59.93
69715;HTU21D;56981;53.532;49.398;2022-07-10T03:05:44;27.74;56.36
69715;HTU21D;56981;53.532;49.398;2022-07-10T03:08:11;28.42;54.08
69715;HTU21D;56981;53.532;49.398;2022-07-10T03:10:37;29.26;50.27
69715;HTU21D;56981;53.532;49.398;2022-07-10T03:13:04;30.37;47.74
69715;HTU21D;56981;53.532;49.398;2022-07-10T03:15:30;31.39;44.76
69715;HTU21D;56981;53.532;49.398;2022-07-10T03:17:57;32.23;41.90
69715;HTU21D;56981;53.532;49.398;2022-07-10T03:20:23;33.03;39.80
69715;HTU21D;56981;53.532;49.398;2022-07-10T03:22:49;33.86;38.32
69715;HTU21D;56981;53.532;49.398;2022-07-10T03:25:15;34.22;37.93
69715;HTU21D;56981;53.532;49.398;2022-07-10T03:27:41;34.38;37.45
69715;HTU21D;56981;53.532;49.398;2022-07-10T03:30:07;34.50;37.17
69715;HTU21D;56981;53.532;49.398;2022-07-10T03:32:33;34.55;36.62
69715;HTU21D;56981;53.532;49.398;2022-07-10T03:34:59;34.85;35.53
69715;HTU21D;56981;53.532;49.398;2022-07-10T03:37:25;34.61;35.74
69715;HTU21D;56981;53.532;49.398;2022-07-10T03:39:51;33.77;38.41
69715;HTU21D;56981;53.532;49.398;2022-07-10T03:42:17;32.82;40.33
69715;HTU21D;56981;53.532;49.398;2022-07-10T03:44:43;32.81;39.72
69715;HTU21D;56981;53.532;49.398;2022-07-10T03:47:09;32.42;40.09
69715;HTU21D;56981;53.532;49.398;2022-07-10T03:49:35;32.02;41.79
69715;HTU21D;56981;53.532;49.398;2022-07-10T03:52:01;31.55;42.04
69715;HTU21D;56981;53.532;49.398;2022-07-10T03:54:29;31.22;43.01
69715;HTU21D;56981;53.532;49.398;2022-07-10T03:56:58;31.09;42.63
69715;HTU21D;56981;53.532;49.398;2022-07-10T03:59:42;31.05;43.80
69715;HTU21D;56981;53.532;49.398;2022-07-10T04:02:08;30.63;44.21
69715;HTU21D;56981;53.532;49.398;2022-07-10T04:04:34;30.37;45.48
69715;HTU21D;56981;53.532;49.398;2022-07-10T04:07:00;30.17;46.28
69715;HTU21D;56981;53.532;49.398;2022-07-10T04:09:26;30.31;46.37
69715;HTU21D;56981;53.532;49.398;2022-07-10T04:11:51;29.74;46.92
69715;HTU21D;56981;53.532;49.398;2022-07-10T04:14:17;29.47;48.47
69715;HTU21D;56981;53.532;49.398;2022-07-10T04:16:43;29.41;48.43
69715;HTU21D;56981;53.532;49.398;2022-07-10T04:19:09;29.05;48.07
69715;HTU21D;56981;53.532;49.398;2022-07-10T04:21:35;29.26;48.26
69715;HTU21D;56981;53.532;49.398;2022-07-10T04:24:02;29.43;48.05
69715;HTU21D;56981;53.532;49.398;2022-07-10T04:26:28;29.54;47.62
69715;HTU21D;56981;53.532;49.398;2022-07-10T04:28:54;29.95;46.97
69715;HTU21D;56981;53.532;49.398;2022-07-10T04:31:20;30.44;46.12
69715;HTU21D;56981;53.532;49.398;2022-07-10T04:33:46;31.14;44.16
69715;HTU21D;56981;53.532;49.398;2022-07-10T04:36:12;31.58;42.60
69715;HTU21D;56981;53.532;49.398;2022-07-10T04:38:38;32.13;42.13
69715;HTU21D;56981;53.532;49.398;2022-07-10T04:41:04;32.56;40.22
69715;HTU21D;56981;53.532;49.398;2022-07-10T04:43:30;32.99;39.19
69715;HTU21D;56981;53.532;49.398;2022-07-10T04:45:56;33.13;38.40
69715;HTU21D;56981;53.532;49.398;2022-07-10T04:48:22;33.29;37.52
69715;HTU21D;56981;53.532;49.398;2022-07-10T04:50:48;33.76;37.71
69715;HTU21D;56981;53.532;49.398;2022-07-10T04:53:14;33.95;36.41
69715;HTU21D;56981;53.532;49.398;2022-07-10T04:55:40;34.70;35.91
69715;HTU21D;56981;53.532;49.398;2022-07-10T04:58:06;35.09;34.63
69715;HTU21D;56981;53.532;49.398;2022-07-10T05:00:31;34.99;34.88
69715;HTU21D;56981;53.532;49.398;2022-07-10T05:02:57;35.53;32.03
69715;HTU21D;56981;53.532;49.398;2022-07-10T05:05:23;36.17;32.31
69715;HTU21D;56981;53.532;49.398;2022-07-10T05:07:49;36.33;32.49
69715;HTU21D;56981;53.532;49.398;2022-07-10T05:10:15;36.47;32.09
69715;HTU21D;56981;53.532;49.398;2022-07-10T05:12:41;37.12;31.25
69715;HTU21D;56981;53.532;49.398;2022-07-10T05:15:07;36.81;30.95
69715;HTU21D;56981;53.532;49.398;2022-07-10T05:17:33;36.87;31.28
69715;HTU21D;56981;53.532;49.398;2022-07-10T05:19:59;37.23;29.79
69715;HTU21D;56981;53.532;49.398;2022-07-10T05:22:25;37.49;29.40
69715;HTU21D;56981;53.532;49.398;2022-07-10T05:24:51;38.02;29.07
69715;HTU21D;56981;53.532;49.398;2022-07-10T05:27:17;37.67;28.97
69715;HTU21D;56981;53.532;49.398;2022-07-10T05:29:46;37.70;29.14
69715;HTU21D;56981;53.532;49.398;2022-07-10T05:32:12;37.17;29.84
69715;HTU21D;56981;53.532;49.398;2022-07-10T05:34:38;37.03;30.30
69715;HTU21D;56981;53.532;49.398;2022-07-10T05:37:04;36.82;30.79
69715;HTU21D;56981;53.532;49.398;2022-07-10T05:39:30;35.85;31.19
69715;HTU21D;56981;53.532;49.398;2022-07-10T05:41:56;35.60;30.98
69715;HTU21D;56981;53.532;49.398;2022-07-10T05:44:23;35.24;32.20
69715;HTU21D;56981;53.532;49.398;2022-07-10T05:46:49;34.88;33.50
69715;HTU21D;56981;53.532;49.398;2022-07-10T05:49:15;34.75;34.78
69715;HTU21D;56981;53.532;49.398;2022-07-10T05:51:41;34.30;36.08
69715;HTU21D;56981;53.532;49.398;2022-07-10T05:54:08;34.02;36.34
69715;HTU21D;56981;53.532;49.398;2022-07-10T05:56:34;34.31;34.89
69715;HTU21D;56981;53.532;49.398;2022-07-10T05:59:00;34.33;34.75
69715;HTU21D;56981;53.532;49.398;2022-07-10T06:01:26;34.81;33.93
69715;HTU21D;56981;53.532;49.398;2022-07-10T06:03:52;35.22;33.41
69715;HTU21D;56981;53.532;49.398;2022-07-10T06:06:18;35.10;35.35
69715;HTU21D;56981;53.532;49.398;2022-07-10T06:08:44;35.12;34.57
69715;HTU21D;56981;53.532;49.398;2022-07-10T06:11:10;35.05;33.61
69715;HTU21D;56981;53.532;49.398;2022-07-10T06:13:36;34.90;34.15
69715;HTU21D;56981;53.532;49.398;2022-07-10T06:16:02;34.71;35.21
69715;HTU21D;56981;53.532;49.398;2022-07-10T06:18:33;34.81;34.92
69715;HTU21D;56981;53.532;49.398;2022-07-10T06:20:59;35.33;34.83
69715;HTU21D;56981;53.532;49.398;2022-07-10T06:23:25;35.34;34.20
69715;HTU21D;56981;53.532;49.398;2022-07-10T06:25:50;35.53;33.80
69715;HTU21D;56981;53.532;49.398;2022-07-10T06:28:17;35.63;32.48
69715;HTU21D;56981;53.532;49.398;2022-07-10T06:30:43;36.04;32.15
69715;HTU21D;56981;53.532;49.398;2022-07-10T06:33:09;35.98;32.43
69715;HTU21D;56981;53.532;49.398;2022-07-10T06:35:35;36.27;31.79
69715;HTU21D;56981;53.532;49.398;2022-07-10T06:38:01;36.09;32.74
69715;HTU21D;56981;53.532;49.398;2022-07-10T06:40:27;36.25;32.02
69715;HTU21D;56981;53.532;49.398;2022-07-10T06:42:54;36.76;31.20
69715;HTU21D;56981;53.532;49.398;2022-07-10T06:45:20;36.30;32.64
69715;HTU21D;56981;53.532;49.398;2022-07-10T06:47:46;36.25;32.83
69715;HTU21D;56981;53.532;49.398;2022-07-10T06:50:30;36.11;32.53
69715;HTU21D;56981;53.532;49.398;2022-07-10T06:52:57;36.51;32.22
69715;HTU21D;56981;53.532;49.398;2022-07-10T06:55:25;36.55;32.30
69715;HTU21D;56981;53.532;49.398;2022-07-10T06:57:51;36.78;31.90
69715;HTU21D;56981;53.532;49.398;2022-07-10T07:00:17;37.22;30.83
69715;HTU21D;56981;53.532;49.398;2022-07-10T07:02:44;37.67;29.58
69715;HTU21D;56981;53.532;49.398;2022-07-10T07:05:11;37.93;28.97
69715;HTU21D;56981;53.532;49.398;2022-07-10T07:07:37;38.03;28.68
69715;HTU21D;56981;53.532;49.398;2022-07-10T07:10:03;38.33;28.12
69715;HTU21D;56981;53.532;49.398;2022-07-10T07:12:30;38.47;27.13
69715;HTU21D;56981;53.532;49.398;2022-07-10T07:14:56;38.32;26.10
69715;HTU21D;56981;53.532;49.398;2022-07-10T07:17:21;38.60;25.07
69715;HTU21D;56981;53.532;49.398;2022-07-10T07:19:49;38.62;24.17
69715;HTU21D;56981;53.532;49.398;2022-07-10T07:22:33;38.47;26.55
69715;HTU21D;56981;53.532;49.398;2022-07-10T07:25:17;38.64;26.28
69715;HTU21D;56981;53.532;49.398;2022-07-10T07:27:43;38.50;27.50
69715;HTU21D;56981;53.532;49.398;2022-07-10T07:30:11;38.45;27.34
69715;HTU21D;56981;53.532;49.398;2022-07-10T07:32:37;38.49;27.21
69715;HTU21D;56981;53.532;49.398;2022-07-10T07:35:04;38.11;27.39
69715;HTU21D;56981;53.532;49.398;2022-07-10T07:37:49;38.09;28.07
69715;HTU21D;56981;53.532;49.398;2022-07-10T07:40:16;38.19;27.98
69715;HTU21D;56981;53.532;49.398;2022-07-10T07:42:42;38.18;28.01
69715;HTU21D;56981;53.532;49.398;2022-07-10T07:45:08;37.99;29.65
69715;HTU21D;56981;53.532;49.398;2022-07-10T07:47:48;37.90;27.36
69715;HTU21D;56981;53.532;49.398;2022-07-10T07:50:16;37.36;28.91
69715;HTU21D;56981;53.532;49.398;2022-07-10T07:52:46;36.73;29.94
69715;HTU21D;56981;53.532;49.398;2022-07-10T07:55:14;35.94;32.27
69715;HTU21D;56981;53.532;49.398;2022-07-10T07:57:41;35.37;31.09
69715;HTU21D;56981;53.532;49.398;2022-07-10T08:00:08;35.13;32.24
69715;HTU21D;56981;53.532;49.398;2022-07-10T08:02:36;34.84;34.13
69715;HTU21D;56981;53.532;49.398;2022-07-10T08:05:02;34.92;33.18
69715;HTU21D;56981;53.532;49.398;2022-07-10T08:07:34;35.34;32.46
69715;HTU21D;56981;53.532;49.398;2022-07-10T08:10:00;35.94;31.16
69715;HTU21D;56981;53.532;49.398;2022-07-10T08:12:26;36.38;31.54
69715;HTU21D;56981;53.532;49.398;2022-07-10T08:14:55;36.40;30.15
69715;HTU21D;56981;53.532;49.398;2022-07-10T08:17:20;36.32;29.96
69715;HTU21D;56981;53.532;49.398;2022-07-10T08:19:47;36.24;29.04
69715;HTU21D;56981;53.532;49.398;2022-07-10T08:22:13;36.16;29.60
69715;HTU21D;56981;53.532;49.398;2022-07-10T08:24:39;36.16;30.52
69715;HTU21D;56981;53.532;49.398;2022-07-10T08:27:05;36.30;31.13
69715;HTU21D;56981;53.532;49.398;2022-07-10T08:29:31;36.52;29.99
69715;HTU21D;56981;53.532;49.398;2022-07-10T08:31:57;36.39;29.39
69715;HTU21D;56981;53.532;49.398;2022-07-10T08:34:23;36.74;30.00
69715;HTU21D;56981;53.532;49.398;2022-07-10T08:36:49;36.88;26.69
69715;HTU21D;56981;53.532;49.398;2022-07-10T08:39:16;36.83;26.66
69715;HTU21D;56981;53.532;49.398;2022-07-10T08:41:42;36.66;30.49
69715;HTU21D;56981;53.532;49.398;2022-07-10T08:44:10;36.41;29.93
69715;HTU21D;56981;53.532;49.398;2022-07-10T08:46:36;36.57;29.87
69715;HTU21D;56981;53.532;49.398;2022-07-10T08:49:05;36.54;30.02
69715;HTU21D;56981;53.532;49.398;2022-07-10T08:51:46;36.41;30.08
69715;HTU21D;56981;53.532;49.398;2022-07-10T08:54:13;36.46;29.71
69715;HTU21D;56981;53.532;49.398;2022-07-10T08:56:39;36.21;30.02
69715;HTU21D;56981;53.532;49.398;2022-07-10T08:59:05;36.02;29.95
69715;HTU21D;56981;53.532;49.398;2022-07-10T09:01:33;35.88;32.60
69715;HTU21D;56981;53.532;49.398;2022-07-10T09:03:59;35.58;32.20
69715;HTU21D;56981;53.532;49.398;2022-07-10T09:06:27;35.31;32.73
69715;HTU21D;56981;53.532;49.398;2022-07-10T09:09:03;34.97;33.18
69715;HTU21D;56981;53.532;49.398;2022-07-10T09:11:29;34.45;33.62
69715;HTU21D;56981;53.532;49.398;2022-07-10T09:13:57;34.02;35.00
69715;HTU21D;56981;53.532;49.398;2022-07-10T09:16:27;33.68;34.78
69715;HTU21D;56981;53.532;49.398;2022-07-10T09:18:53;33.52;34.60
69715;HTU21D;56981;53.532;49.398;2022-07-10T09:21:20;33.34;36.15
69715;HTU21D;56981;53.532;49.398;2022-07-10T09:23:46;33.27;37.05
69715;HTU21D;56981;53.532;49.398;2022-07-10T09:26:12;32.98;35.60
69715;HTU21D;56981;53.532;49.398;2022-07-10T09:28:38;32.72;35.78
69715;HTU21D;56981;53.532;49.398;2022-07-10T09:31:04;32.55;36.85
69715;HTU21D;56981;53.532;49.398;2022-07-10T09:33:30;32.58;35.52
69715;HTU21D;56981;53.532;49.398;2022-07-10T09:41:11;32.41;34.60
69715;HTU21D;56981;53.532;49.398;2022-07-10T09:46:26;32.39;34.30
69715;HTU21D;56981;53.532;49.398;2022-07-10T09:49:00;32.60;35.37
69715;HTU21D;56981;53.532;49.398;2022-07-10T09:51:26;32.61;30.63
69715;HTU21D;56981;53.532;49.398;2022-07-10T09:53:54;32.75;29.81
69715;HTU21D;56981;53.532;49.398;2022-07-10T09:56:21;32.74;31.15
69715;HTU21D;56981;53.532;49.398;2022-07-10T09:58:48;32.82;29.77
69715;HTU21D;56981;53.532;49.398;2022-07-10T10:01:17;32.82;27.29
69715;HTU21D;56981;53.532;49.398;2022-07-10T10:03:43;32.87;28.17
69715;HTU21D;56981;53.532;49.398;2022-07-10T10:06:11;32.91;27.43
69715;HTU21D;56981;53.532;49.398;2022-07-10T10:08:44;32.74;29.63
69715;HTU21D;56981;53.532;49.398;2022-07-10T10:11:15;32.79;30.88
69715;HTU21D;56981;53.532;49.398;2022-07-10T10:13:42;32.91;30.50
69715;HTU21D;56981;53.532;49.398;2022-07-10T10:16:08;32.88;29.56
69715;HTU21D;56981;53.532;49.398;2022-07-10T10:18:35;32.76;31.85
69715;HTU21D;56981;53.532;49.398;2022-07-10T10:21:02;32.79;29.11
69715;HTU21D;56981;53.532;49.398;2022-07-10T10:23:32;32.70;30.06
69715;HTU21D;56981;53.532;49.398;2022-07-10T10:25:58;32.60;28.77
69715;HTU21D;56981;53.532;49.398;2022-07-10T10:28:24;32.41;30.08
69715;HTU21D;56981;53.532;49.398;2022-07-10T10:31:00;32.11;28.54
69715;HTU21D;56981;53.532;49.398;2022-07-10T10:35:58;31.88;28.17
69715;HTU21D;56981;53.532;49.398;2022-07-10T10:38:24;31.86;29.32
69715;HTU21D;56981;53.532;49.398;2022-07-10T10:40:50;31.76;30.35
69715;HTU21D;56981;53.532;49.398;2022-07-10T10:43:20;31.63;31.80
69715;HTU21D;56981;53.532;49.398;2022-07-10T10:45:46;31.53;32.10
69715;HTU21D;56981;53.532;49.398;2022-07-10T10:48:13;31.40;32.76
69715;HTU21D;56981;53.532;49.398;2022-07-10T10:50:41;31.39;31.75
69715;HTU21D;56981;53.532;49.398;2022-07-10T10:53:14;31.51;33.51
69715;HTU21D;56981;53.532;49.398;2022-07-10T10:56:26;31.73;31.83
69715;HTU21D;56981;53.532;49.398;2022-07-10T10:58:27;31.95;35.12
69715;HTU21D;56981;53.532;49.398;2022-07-10T11:01:03;32.05;35.51
69715;HTU21D;56981;53.532;49.398;2022-07-10T11:03:29;32.20;35.21
69715;HTU21D;56981;53.532;49.398;2022-07-10T11:05:55;32.11;33.46
69715;HTU21D;56981;53.532;49.398;2022-07-10T11:08:35;31.99;36.40
69715;HTU21D;56981;53.532;49.398;2022-07-10T11:11:26;31.95;36.94
69715;HTU21D;56981;53.532;49.398;2022-07-10T11:13:48;31.99;36.02
69715;HTU21D;56981;53.532;49.398;2022-07-10T11:16:15;32.08;37.55
69715;HTU21D;56981;53.532;49.398;2022-07-10T11:18:41;32.11;36.37
69715;HTU21D;56981;53.532;49.398;2022-07-10T11:21:07;32.19;30.67
69715;HTU21D;56981;53.532;49.398;2022-07-10T11:26:11;32.28;31.96
69715;HTU21D;56981;53.532;49.398;2022-07-10T11:28:55;32.26;33.93
69715;HTU21D;56981;53.532;49.398;2022-07-10T11:31:22;32.30;34.76
69715;HTU21D;56981;53.532;49.398;2022-07-10T11:33:49;32.33;34.55
69715;HTU21D;56981;53.532;49.398;2022-07-10T11:36:17;32.01;31.29
69715;HTU21D;56981;53.532;49.398;2022-07-10T11:38:44;31.88;32.36
69715;HTU21D;56981;53.532;49.398;2022-07-10T11:41:17;32.07;33.36
69715;HTU21D;56981;53.532;49.398;2022-07-10T11:43:56;32.32;34.85
69715;HTU21D;56981;53.532;49.398;2022-07-10T11:46:24;32.32;34.95
69715;HTU21D;56981;53.532;49.398;2022-07-10T11:48:50;32.32;34.14
69715;HTU21D;56981;53.532;49.398;2022-07-10T11:51:20;32.39;34.87
69715;HTU21D;56981;53.532;49.398;2022-07-10T11:53:59;32.42;34.51
69715;HTU21D;56981;53.532;49.398;2022-07-10T11:56:28;32.41;35.69
69715;HTU21D;56981;53.532;49.398;2022-07-10T11:58:58;32.35;33.82
69715;HTU21D;56981;53.532;49.398;2022-07-10T12:01:24;32.35;33.15
69715;HTU21D;56981;53.532;49.398;2022-07-10T12:04:06;32.42;33.19
69715;HTU21D;56981;53.532;49.398;2022-07-10T12:06:33;32.58;35.18
69715;HTU21D;56981;53.532;49.398;2022-07-10T12:12:05;32.50;32.28
69715;HTU21D;56981;53.532;49.398;2022-07-10T12:14:32;32.62;30.10
69715;HTU21D;56981;53.532;49.398;2022-07-10T12:16:58;32.66;31.46
69715;HTU21D;56981;53.532;49.398;2022-07-10T12:19:31;32.73;31.36
69715;HTU21D;56981;53.532;49.398;2022-07-10T12:22:01;32.68;33.92
69715;HTU21D;56981;53.532;49.398;2022-07-10T12:24:27;32.62;31.38
69715;HTU21D;56981;53.532;49.398;2022-07-10T12:26:53;32.76;33.45
69715;HTU21D;56981;53.532;49.398;2022-07-10T12:29:22;32.73;32.25
69715;HTU21D;56981;53.532;49.398;2022-07-10T12:31:49;32.84;33.02
69715;HTU21D;56981;53.532;49.398;2022-07-10T12:34:15;32.69;30.35
69715;HTU21D;56981;53.532;49.398;2022-07-10T12:36:42;32.73;31.79
69715;HTU21D;56981;53.532;49.398;2022-07-10T12:39:12;32.85;32.72
69715;HTU21D;56981;53.532;49.398;2022-07-10T12:44:33;32.90;34.55
69715;HTU21D;56981;53.532;49.398;2022-07-10T12:51:21;32.89;31.32
69715;HTU21D;56981;53.532;49.398;2022-07-10T12:53:51;32.86;32.45
69715;HTU21D;56981;53.532;49.398;2022-07-10T12:56:31;32.77;30.51
69715;HTU21D;56981;53.532;49.398;2022-07-10T12:58:58;32.94;33.20
69715;HTU21D;56981;53.532;49.398;2022-07-10T13:01:26;33.01;32.59
69715;HTU21D;56981;53.532;49.398;2022-07-10T13:04:01;33.09;33.38
69715;HTU21D;56981;53.532;49.398;2022-07-10T13:06:28;33.12;33.94
69715;HTU21D;56981;53.532;49.398;2022-07-10T13:08:54;33.12;36.88
69715;HTU21D;56981;53.532;49.398;2022-07-10T13:11:20;33.04;32.58
69715;HTU21D;56981;53.532;49.398;2022-07-10T13:13:47;33.00;35.00
69715;HTU21D;56981;53.532;49.398;2022-07-10T13:16:16;33.00;31.61
69715;HTU21D;56981;53.532;49.398;2022-07-10T13:18:42;33.00;30.64
69715;HTU21D;56981;53.532;49.398;2022-07-10T13:21:09;33.12;32.02
69715;HTU21D;56981;53.532;49.398;2022-07-10T13:23:36;33.02;30.92
69715;HTU21D;56981;53.532;49.398;2022-07-10T13:26:03;32.93;29.65
69715;HTU21D;56981;53.532;49.398;2022-07-10T13:28:29;32.89;32.26
69715;HTU21D;56981;53.532;49.398;2022-07-10T13:30:55;32.76;31.90
69715;HTU21D;56981;53.532;49.398;2022-07-10T13:33:21;32.83;35.13
69715;HTU21D;56981;53.532;49.398;2022-07-10T13:35:48;32.54;33.45
69715;HTU21D;56981;53.532;49.398;2022-07-10T13:38:14;32.38;34.59
69715;HTU21D;56981;53.532;49.398;2022-07-10T13:40:43;32.37;34.53
69715;HTU21D;56981;53.532;49.398;2022-07-10T13:43:09;32.20;33.31
69715;HTU21D;56981;53.532;49.398;2022-07-10T13:45:35;32.20;33.96
69715;HTU21D;56981;53.532;49.398;2022-07-10T13:48:19;32.30;33.54
69715;HTU21D;56981;53.532;49.398;2022-07-10T13:50:45;32.33;33.78
69715;HTU21D;56981;53.532;49.398;2022-07-10T13:53:12;32.31;33.25
69715;HTU21D;56981;53.532;49.398;2022-07-10T13:55:39;32.31;31.98
69715;HTU21D;56981;53.532;49.398;2022-07-10T13:58:05;32.34;35.40
69715;HTU21D;56981;53.532;49.398;2022-07-10T14:00:31;32.28;33.34
69715;HTU21D;56981;53.532;49.398;2022-07-10T14:02:57;32.27;33.58
69715;HTU21D;56981;53.532;49.398;2022-07-10T14:05:23;32.25;33.89
69715;HTU21D;56981;53.532;49.398;2022-07-10T14:07:49;32.24;33.38
69715;HTU21D;56981;53.532;49.398;2022-07-10T14:10:15;32.13;33.92
69715;HTU21D;56981;53.532;49.398;2022-07-10T14:12:41;32.03;32.71
69715;HTU21D;56981;53.532;49.398;2022-07-10T14:15:07;32.04;32.81
69715;HTU21D;56981;53.532;49.398;2022-07-10T14:17:34;31.98;32.51
69715;HTU21D;56981;53.532;49.398;2022-07-10T14:20:00;31.96;36.69
69715;HTU21D;56981;53.532;49.398;2022-07-10T14:22:26;31.95;34.05
69715;HTU21D;56981;53.532;49.398;2022-07-10T14:24:52;31.82;36.57
69715;HTU21D;56981;53.532;49.398;2022-07-10T14:27:19;31.56;40.81
69715;HTU21D;56981;53.532;49.398;2022-07-10T14:29:45;31.42;42.68
69715;HTU21D;56981;53.532;49.398;2022-07-10T14:32:11;31.11;42.28
69715;HTU21D;56981;53.532;49.398;2022-07-10T14:34:37;31.00;40.51
69715;HTU21D;56981;53.532;49.398;2022-07-10T14:37:03;31.08;41.14
69715;HTU21D;56981;53.532;49.398;2022-07-10T14:39:29;31.10;40.62
69715;HTU21D;56981;53.532;49.398;2022-07-10T14:41:55;31.13;41.29
69715;HTU21D;56981;53.532;49.398;2022-07-10T14:44:21;31.10;42.32
69715;HTU21D;56981;53.532;49.398;2022-07-10T14:46:47;30.98;42.52
69715;HTU21D;56981;53.532;49.398;2022-07-10T14:49:13;30.92;40.97
69715;HTU21D;56981;53.532;49.398;2022-07-10T14:51:39;30.92;40.71
69715;HTU21D;56981;53.532;49.398;2022-07-10T14:54:05;30.82;39.61
69715;HTU21D;56981;53.532;49.398;2022-07-10T14:56:31;30.77;39.56
69715;HTU21D;56981;53.532;49.398;2022-07-10T14:58:57;30.77;39.64
69715;HTU21D;56981;53.532;49.398;2022-07-10T15:01:23;30.70;39.68
69715;HTU21D;56981;53.532;49.398;2022-07-10T15:03:49;30.74;39.84
69715;HTU21D;56981;53.532;49.398;2022-07-10T15:06:15;30.69;39.18
69715;HTU21D;56981;53.532;49.398;2022-07-10T15:08:41;30.69;39.68
69715;HTU21D;56981;53.532;49.398;2022-07-10T15:11:07;30.65;40.96
69715;HTU21D;56981;53.532;49.398;2022-07-10T15:13:33;30.49;41.20
69715;HTU21D;56981;53.532;49.398;2022-07-10T15:15:59;30.40;41.49
69715;HTU21D;56981;53.532;49.398;2022-07-10T15:18:26;30.38;41.66
69715;HTU21D;56981;53.532;49.398;2022-07-10T15:20:52;30.25;41.87
69715;HTU21D;56981;53.532;49.398;2022-07-10T15:23:18;30.22;40.73
69715;HTU21D;56981;53.532;49.398;2022-07-10T15:25:44;30.16;40.29